createdAt,value
2023-03-17T00:00:47.237Z,101590.38
2023-03-17T00:03:30.042Z,101600.16
2023-03-17T00:05:59.448Z,101610.78
2023-03-17T00:08:30.623Z,101611.63
2023-03-17T00:10:59.306Z,101612.59
2023-03-17T00:13:27.645Z,101616.31
2023-03-17T00:16:02.258Z,101612.69
2023-03-17T00:18:35.596Z,101616.31
2023-03-17T00:21:04.748Z,101614.59
2023-03-17T00:23:33.073Z,101612.91
2023-03-17T00:26:02.017Z,101614.59
2023-03-17T00:28:30.370Z,101613.84
2023-03-17T00:31:03.458Z,101613.94
2023-03-17T00:33:33.492Z,101616.50
2023-03-17T00:36:02.417Z,101611.19
2023-03-17T00:38:31.763Z,101613.94
2023-03-17T00:41:00.425Z,101615.75
2023-03-17T00:43:30.565Z,101613.09
2023-03-17T00:45:59.312Z,101612.25
2023-03-17T00:48:28.001Z,101608.84
2023-03-17T00:50:56.758Z,101611.50
2023-03-17T00:53:25.271Z,101600.88
2023-03-17T00:55:54.417Z,101600.00
2023-03-17T00:58:32.802Z,101596.50
2023-03-17T01:01:01.710Z,101598.31
2023-03-17T01:03:31.233Z,101586.94
2023-03-17T01:05:59.920Z,101582.47
2023-03-17T01:08:30.320Z,101573.56
2023-03-17T01:10:59.682Z,101571.19
2023-03-17T01:13:28.593Z,101579.91
2023-03-17T01:15:57.937Z,101580.00
2023-03-17T01:18:26.497Z,101582.66
2023-03-17T01:20:55.391Z,101579.16
2023-03-17T01:23:23.751Z,101570.34
2023-03-17T01:25:52.506Z,101576.72
2023-03-17T01:28:21.134Z,101571.41
2023-03-17T01:30:50.208Z,101569.69
2023-03-17T01:33:19.520Z,101568.75
2023-03-17T01:35:48.251Z,101575.84
2023-03-17T01:38:16.723Z,101563.53
2023-03-17T01:40:50.618Z,101571.59
2023-03-17T01:43:27.764Z,101568.84
2023-03-17T01:46:32.206Z,101568.94
2023-03-17T01:49:14.691Z,101567.13
2023-03-17T01:51:58.931Z,101569.91
2023-03-17T01:55:02.551Z,101572.56
2023-03-17T01:57:39.872Z,101566.47
2023-03-17T02:00:16.655Z,101552.25
2023-03-17T02:02:48.918Z,101566.47
2023-03-17T02:05:26.215Z,101556.91
2023-03-17T02:07:55.769Z,101549.69
2023-03-17T02:10:30.790Z,101557.75
2023-03-17T02:13:01.475Z,101549.91
2023-03-17T02:15:48.865Z,101556.06
2023-03-17T02:18:20.252Z,101549.16
2023-03-17T02:20:48.547Z,101554.34
2023-03-17T02:23:22.931Z,101555.31
2023-03-17T02:25:53.021Z,101555.31
2023-03-17T02:28:28.914Z,101557.97
2023-03-17T02:30:58.443Z,101559.78
2023-03-17T02:33:28.050Z,101557.22
2023-03-17T02:35:57.660Z,101555.41
2023-03-17T02:38:26.404Z,101552.84
2023-03-17T02:40:54.902Z,101552.84
2023-03-17T02:43:24.038Z,101562.63
2023-03-17T02:45:52.471Z,101550.31
2023-03-17T02:48:23.378Z,101553.06
2023-03-17T02:50:51.668Z,101549.44
2023-03-17T02:53:20.939Z,101554.75
2023-03-17T02:55:49.279Z,101549.66
2023-03-17T02:58:18.149Z,101554.09
2023-03-17T03:00:46.971Z,101553.16
2023-03-17T03:03:16.409Z,101545.28
2023-03-17T03:05:44.888Z,101540.06
2023-03-17T03:08:13.579Z,101550.59
2023-03-17T03:10:42.049Z,101545.38
2023-03-17T03:13:11.747Z,101546.34
2023-03-17T03:15:43.144Z,101553.47
2023-03-17T03:18:13.505Z,101550.81
2023-03-17T03:20:44.670Z,101547.41
2023-03-17T03:23:13.736Z,101548.16
2023-03-17T03:25:43.076Z,101547.50
2023-03-17T03:28:11.867Z,101548.34
2023-03-17T03:30:40.267Z,101545.78
2023-03-17T03:33:09.677Z,101550.25
2023-03-17T03:35:38.153Z,101548.44
2023-03-17T03:38:07.890Z,101549.41
2023-03-17T03:40:37.236Z,101544.09
2023-03-17T03:43:16.308Z,101551.19
2023-03-17T03:45:50.136Z,101552.16
2023-03-17T03:48:18.993Z,101548.75
2023-03-17T03:50:47.563Z,101550.66
2023-03-17T03:53:16.291Z,101549.69
2023-03-17T03:55:44.614Z,101555.94
2023-03-17T03:58:13.505Z,101556.78
2023-03-17T04:00:41.864Z,101550.66
2023-03-17T04:03:10.838Z,101555.09
2023-03-17T04:05:39.138Z,101546.28
2023-03-17T04:08:07.855Z,101556.88
2023-03-17T04:10:36.450Z,101551.56
2023-03-17T04:13:05.186Z,101553.56
2023-03-17T04:15:33.867Z,101560.50
2023-03-17T04:18:02.885Z,101560.69
2023-03-17T04:20:31.517Z,101559.75
2023-03-17T04:23:00.771Z,101560.59
2023-03-17T04:25:29.236Z,101566.84
2023-03-17T04:27:58.557Z,101561.75
2023-03-17T04:30:26.881Z,101558.25
2023-03-17T04:32:55.861Z,101559.19
2023-03-17T04:35:24.212Z,101557.38
2023-03-17T04:37:52.855Z,101563.56
2023-03-17T04:40:21.387Z,101559.19
2023-03-17T04:42:50.122Z,101560.16
2023-03-17T04:45:18.582Z,101560.25
2023-03-17T04:47:47.335Z,101553.13
2023-03-17T04:50:16.041Z,101550.47
2023-03-17T04:52:44.658Z,101548.66
2023-03-17T04:55:13.138Z,101547.81
2023-03-17T04:57:41.777Z,101549.63
2023-03-17T05:00:12.780Z,101546.09
2023-03-17T05:02:41.935Z,101543.56
2023-03-17T05:05:10.443Z,101545.34
2023-03-17T05:07:39.258Z,101547.81
2023-03-17T05:10:08.365Z,101541.56
2023-03-17T05:12:37.183Z,101549.41
2023-03-17T05:15:06.253Z,101545.59
2023-03-17T05:17:35.003Z,101548.94
2023-03-17T05:20:04.561Z,101549.69
2023-03-17T05:22:33.272Z,101551.94
2023-03-17T05:25:01.554Z,101550.69
2023-03-17T05:27:31.578Z,101549.34
2023-03-17T05:30:00.012Z,101554.16
2023-03-17T05:32:28.774Z,101558.88
2023-03-17T05:34:57.340Z,101559.53
2023-03-17T05:37:26.032Z,101552.84
2023-03-17T05:39:54.532Z,101553.09
2023-03-17T05:42:23.232Z,101547.72
2023-03-17T05:44:51.639Z,101543.50
2023-03-17T05:47:21.076Z,101545.84
2023-03-17T05:49:49.391Z,101555.19
2023-03-17T05:52:18.605Z,101555.94
2023-03-17T05:54:49.365Z,101548.28
2023-03-17T05:57:18.355Z,101550.31
2023-03-17T05:59:46.806Z,101547.78
2023-03-17T06:02:15.959Z,101547.88
2023-03-17T06:04:44.463Z,101550.56
2023-03-17T06:07:13.276Z,101558.59
2023-03-17T06:09:41.899Z,101552.75
2023-03-17T06:12:11.144Z,101552.09
2023-03-17T06:14:39.504Z,101552.19
2023-03-17T06:17:08.514Z,101553.28
2023-03-17T06:19:37.035Z,101554.75
2023-03-17T06:22:06.045Z,101553.38
2023-03-17T06:24:34.749Z,101550.09
2023-03-17T06:27:03.587Z,101550.72
2023-03-17T06:29:32.710Z,101545.63
2023-03-17T06:32:17.106Z,101546.28
2023-03-17T06:34:48.426Z,101552.34
2023-03-17T06:37:17.364Z,101548.09
2023-03-17T06:39:46.163Z,101553.50
2023-03-17T06:42:15.423Z,101545.84
2023-03-17T06:44:43.689Z,101545.22
2023-03-17T06:47:12.870Z,101548.94
2023-03-17T06:49:41.452Z,101554.16
2023-03-17T06:52:10.200Z,101552.88
2023-03-17T06:54:38.724Z,101558.09
2023-03-17T06:57:07.420Z,101551.28
2023-03-17T06:59:36.261Z,101553.63
2023-03-17T07:02:05.750Z,101553.41
2023-03-17T07:04:37.824Z,101554.16
2023-03-17T07:07:06.716Z,101554.16
2023-03-17T07:09:35.704Z,101559.50
2023-03-17T07:12:05.246Z,101555.22
2023-03-17T07:14:35.963Z,101556.63
2023-03-17T07:17:06.437Z,101558.31
2023-03-17T07:19:35.397Z,101562.69
2023-03-17T07:22:04.301Z,101561.16
2023-03-17T07:24:32.720Z,101564.78
2023-03-17T07:27:01.560Z,101565.00
2023-03-17T07:29:30.140Z,101566.72
2023-03-17T07:31:59.129Z,101560.53
2023-03-17T07:34:28.456Z,101563.31
2023-03-17T07:36:57.166Z,101559.81
2023-03-17T07:39:26.191Z,101564.16
2023-03-17T07:41:57.805Z,101568.63
2023-03-17T07:44:27.654Z,101562.47
2023-03-17T07:46:56.851Z,101562.47
2023-03-17T07:49:40.357Z,101567.44
2023-03-17T07:52:10.559Z,101557.16
2023-03-17T07:54:41.557Z,101561.16
2023-03-17T07:57:12.140Z,101564.38
2023-03-17T07:59:41.849Z,101568.00
2023-03-17T08:02:19.771Z,101569.69
2023-03-17T08:04:48.330Z,101562.78
2023-03-17T08:07:17.027Z,101560.13
2023-03-17T08:09:45.442Z,101561.94
2023-03-17T08:12:15.127Z,101564.59
2023-03-17T08:14:43.407Z,101562.69
2023-03-17T08:17:12.521Z,101566.28
2023-03-17T08:19:41.355Z,101562.69
2023-03-17T08:22:10.921Z,101566.28
2023-03-17T08:24:41.261Z,101560.22
2023-03-17T08:27:10.282Z,101560.78
2023-03-17T08:29:39.277Z,101557.13
2023-03-17T08:32:08.978Z,101558.06
2023-03-17T08:34:37.802Z,101555.03
2023-03-17T08:37:10.036Z,101563.66
2023-03-17T08:39:39.706Z,101559.00
2023-03-17T08:42:08.518Z,101564.69
2023-03-17T08:44:37.442Z,101564.50
2023-03-17T08:47:06.334Z,101566.69
2023-03-17T08:49:36.762Z,101561.84
2023-03-17T08:52:05.782Z,101557.72
2023-03-17T08:54:36.302Z,101565.69
2023-03-17T08:57:05.222Z,101559.75
2023-03-17T08:59:33.794Z,101556.75
2023-03-17T09:02:02.475Z,101559.59
2023-03-17T09:04:30.927Z,101567.75
2023-03-17T09:07:03.715Z,101560.91
2023-03-17T09:09:34.859Z,101561.75
2023-03-17T09:12:05.857Z,101552.38
2023-03-17T09:14:42.777Z,101551.81
2023-03-17T09:17:13.991Z,101564.69
2023-03-17T09:19:43.797Z,101557.13
2023-03-17T09:22:14.373Z,101556.53
2023-03-17T09:24:43.136Z,101562.72
2023-03-17T09:27:12.056Z,101553.91
2023-03-17T09:29:41.408Z,101548.03
2023-03-17T09:32:10.493Z,101544.22
2023-03-17T09:34:38.957Z,101554.56
2023-03-17T09:37:10.006Z,101550.91
2023-03-17T09:39:38.635Z,101549.00
2023-03-17T09:42:42.435Z,101549.84
2023-03-17T09:45:39.301Z,101553.78
2023-03-17T09:48:47.035Z,101548.03
2023-03-17T09:51:18.713Z,101549.53
2023-03-17T09:54:05.475Z,101543.88
2023-03-17T09:56:34.954Z,101541.38
2023-03-17T09:59:38.378Z,101542.53
2023-03-17T10:02:31.013Z,101536.66
2023-03-17T10:05:27.488Z,101545.38
2023-03-17T10:08:29.435Z,101539.41
2023-03-17T10:11:23.675Z,101537.38
2023-03-17T10:14:24.863Z,101540.78
2023-03-17T10:17:25.777Z,101538.38
2023-03-17T10:20:04.571Z,101533.50
2023-03-17T10:22:45.642Z,101526.19
2023-03-17T10:25:29.988Z,101523.22
2023-03-17T10:28:39.286Z,101527.25
2023-03-17T10:31:19.273Z,101528.44
2023-03-17T10:33:50.652Z,101518.94
2023-03-17T10:36:42.842Z,101520.72
2023-03-17T10:39:19.062Z,101514.75
2023-03-17T10:41:57.243Z,101516.81
2023-03-17T10:44:54.610Z,101513.31
2023-03-17T10:47:39.845Z,101507.03
2023-03-17T10:50:31.784Z,101508.31
2023-03-17T10:53:08.572Z,101502.94
2023-03-17T10:55:49.970Z,101501.28
2023-03-17T10:58:45.345Z,101503.88
2023-03-17T11:01:30.405Z,101505.28
2023-03-17T11:04:00.656Z,101503.22
2023-03-17T11:06:38.536Z,101494.19
2023-03-17T11:09:09.927Z,101498.78
2023-03-17T11:11:50.106Z,101494.34
2023-03-17T11:14:19.361Z,101486.03
2023-03-17T11:16:57.543Z,101490.94
2023-03-17T11:19:46.320Z,101484.31
2023-03-17T11:22:21.457Z,101495.66
2023-03-17T11:25:13.651Z,101479.56
2023-03-17T11:27:51.497Z,101481.78
2023-03-17T11:30:53.918Z,101470.25
2023-03-17T11:33:31.698Z,101476.22
2023-03-17T11:36:18.728Z,101467.78
2023-03-17T11:39:13.808Z,101456.91
2023-03-17T11:41:51.938Z,101467.44
2023-03-17T11:44:59.197Z,101448.88
2023-03-17T11:47:32.094Z,101453.56
2023-03-17T11:50:23.996Z,101450.44
2023-03-17T11:53:17.919Z,101445.09
2023-03-17T11:56:15.455Z,101437.34
2023-03-17T11:58:47.142Z,101440.28
2023-03-17T12:01:30.547Z,101440.94
2023-03-17T12:04:10.544Z,101435.63
2023-03-17T12:07:01.535Z,101434.78
2023-03-17T12:09:55.690Z,101424.56
2023-03-17T12:12:34.482Z,101419.78
2023-03-17T12:15:03.802Z,101423.47
2023-03-17T12:17:42.371Z,101423.69
2023-03-17T12:20:50.266Z,101408.22
2023-03-17T12:23:49.691Z,101408.84
2023-03-17T12:26:37.418Z,101410.31
2023-03-17T12:29:24.242Z,101407.03
2023-03-17T12:32:38.776Z,101402.22
2023-03-17T12:35:32.431Z,101390.78
2023-03-17T12:38:32.005Z,101390.16
2023-03-17T12:41:39.563Z,101388.13
2023-03-17T12:44:34.682Z,101381.66
2023-03-17T12:47:17.737Z,101370.59
2023-03-17T12:50:09.684Z,101364.66
2023-03-17T12:53:19.421Z,101370.06
2023-03-17T12:55:50.012Z,101379.88
2023-03-17T12:58:39.325Z,101370.94
2023-03-17T13:01:43.474Z,101362.75
2023-03-17T13:04:32.719Z,101344.44
2023-03-17T13:07:33.576Z,101345.28
2023-03-17T13:10:02.186Z,101342.34
2023-03-17T13:12:43.886Z,101343.84
2023-03-17T13:15:25.398Z,101337.75
2023-03-17T13:18:16.579Z,101332.56
2023-03-17T13:20:46.190Z,101320.66
2023-03-17T13:23:16.873Z,101321.63
2023-03-17T13:25:53.745Z,101312.56
2023-03-17T13:28:43.347Z,101317.78
2023-03-17T13:31:27.204Z,101321.81
2023-03-17T13:34:12.145Z,101322.13
2023-03-17T13:36:49.865Z,101311.38
2023-03-17T13:39:56.818Z,101308.41
2023-03-17T13:43:02.349Z,101304.06
2023-03-17T13:45:38.671Z,101303.22
2023-03-17T13:48:29.904Z,101295.34
2023-03-17T13:51:09.710Z,101296.63
2023-03-17T13:54:26.607Z,101300.88
2023-03-17T13:56:56.454Z,101287.91
2023-03-17T14:00:05.798Z,101287.69
2023-03-17T14:02:36.814Z,101286.13
2023-03-17T14:05:17.959Z,101289.28
2023-03-17T14:08:20.458Z,101281.97
2023-03-17T14:11:00.827Z,101285.75
2023-03-17T14:14:31.943Z,101278.75
2023-03-17T14:17:24.968Z,101284.06
2023-03-17T14:20:18.583Z,101277.59
2023-03-17T14:23:01.934Z,101270.19
2023-03-17T14:25:38.822Z,101263.69
2023-03-17T14:28:11.978Z,101258.16
2023-03-17T14:30:40.484Z,101260.72
2023-03-17T14:33:12.320Z,101267.31
2023-03-17T14:35:43.598Z,101255.41
2023-03-17T14:38:34.740Z,101253.25
2023-03-17T14:41:15.079Z,101253.13
2023-03-17T14:43:44.385Z,101252.78
2023-03-17T14:46:33.389Z,101250.00
2023-03-17T14:49:20.100Z,101242.25
2023-03-17T14:51:51.231Z,101243.09
2023-03-17T14:54:23.031Z,101242.97
2023-03-17T14:57:08.445Z,101242.78
2023-03-17T14:59:40.667Z,101236.47
2023-03-17T15:02:35.111Z,101236.47
2023-03-17T15:05:26.610Z,101235.53
2023-03-17T15:07:55.182Z,101227.56
2023-03-17T15:10:26.511Z,101230.31
2023-03-17T15:13:02.221Z,101235.75
2023-03-17T15:15:38.690Z,101226.94
2023-03-17T15:18:15.242Z,101233.19
2023-03-17T15:20:44.739Z,101228.59
2023-03-17T15:23:18.506Z,101230.41
2023-03-17T15:25:55.960Z,101223.44
2023-03-17T15:28:31.701Z,101226.81
2023-03-17T15:31:12.732Z,101224.16
2023-03-17T15:33:42.259Z,101226.94
2023-03-17T15:36:31.322Z,101217.25
2023-03-17T15:39:01.361Z,101213.63
2023-03-17T15:41:30.044Z,101211.09
2023-03-17T15:43:58.377Z,101210.25
2023-03-17T15:46:31.232Z,101201.63
2023-03-17T15:49:00.554Z,101205.13
2023-03-17T15:51:29.180Z,101214.94
2023-03-17T15:53:57.489Z,101210.59
2023-03-17T15:56:26.435Z,101209.72
2023-03-17T15:58:54.781Z,101205.28
2023-03-17T16:01:25.165Z,101204.50
2023-03-17T16:03:55.774Z,101208.25
2023-03-17T16:06:24.450Z,101204.66
2023-03-17T16:08:52.811Z,101202.19
2023-03-17T16:11:28.465Z,101196.03
2023-03-17T16:13:58.071Z,101190.00
2023-03-17T16:16:36.018Z,101195.31
2023-03-17T16:19:10.489Z,101197.97
2023-03-17T16:21:39.176Z,101198.91
2023-03-17T16:24:14.449Z,101202.75
2023-03-17T16:26:43.186Z,101202.66
2023-03-17T16:29:14.765Z,101197.34
2023-03-17T16:31:45.216Z,101193.94
2023-03-17T16:34:23.684Z,101194.06
2023-03-17T16:36:54.334Z,101192.38
2023-03-17T16:39:23.407Z,101187.78
2023-03-17T16:41:53.640Z,101186.91
2023-03-17T16:44:22.057Z,101182.47
2023-03-17T16:46:51.196Z,101188.41
2023-03-17T16:49:20.853Z,101187.34
2023-03-17T16:51:50.594Z,101186.03
2023-03-17T16:54:19.087Z,101187.66
2023-03-17T16:56:47.889Z,101186.84
2023-03-17T16:59:20.743Z,101191.59
2023-03-17T17:01:49.959Z,101189.22
2023-03-17T17:04:18.488Z,101186.09
2023-03-17T17:06:47.238Z,101190.50
2023-03-17T17:09:15.605Z,101182.25
2023-03-17T17:11:44.127Z,101187.56
2023-03-17T17:14:13.405Z,101188.13
2023-03-17T17:16:42.031Z,101196.34
2023-03-17T17:19:16.974Z,101189.56
2023-03-17T17:21:45.573Z,101191.28
2023-03-17T17:24:14.787Z,101198.41
2023-03-17T17:26:43.204Z,101193.53
2023-03-17T17:29:12.452Z,101192.97
2023-03-17T17:31:41.395Z,101186.19
2023-03-17T17:34:10.196Z,101200.22
2023-03-17T17:36:38.615Z,101198.75
2023-03-17T17:39:07.666Z,101188.34
2023-03-17T17:41:36.216Z,101205.03
2023-03-17T17:44:05.994Z,101195.59
2023-03-17T17:46:34.424Z,101205.50
2023-03-17T17:49:02.790Z,101203.22
2023-03-17T17:51:33.001Z,101197.06
2023-03-17T17:54:01.441Z,101197.06
2023-03-17T17:56:30.959Z,101204.53
2023-03-17T17:58:59.586Z,101206.34
2023-03-17T18:01:28.434Z,101203.78
2023-03-17T18:03:56.889Z,101207.41
2023-03-17T18:06:25.868Z,101202.94
2023-03-17T18:08:55.403Z,101203.06
2023-03-17T18:11:24.130Z,101200.88
2023-03-17T18:13:52.621Z,101200.88
2023-03-17T18:16:21.648Z,101197.47
2023-03-17T18:18:50.368Z,101197.69
2023-03-17T18:21:18.809Z,101196.25
2023-03-17T18:23:48.829Z,101203.28
2023-03-17T18:26:18.408Z,101199.63
2023-03-17T18:28:48.201Z,101202.19
2023-03-17T18:31:25.842Z,101204.00
2023-03-17T18:33:59.541Z,101201.56
2023-03-17T18:36:28.097Z,101196.25
2023-03-17T18:38:57.258Z,101192.94
2023-03-17T18:41:26.250Z,101206.16
2023-03-17T18:43:55.119Z,101201.19
2023-03-17T18:46:23.647Z,101198.53
2023-03-17T18:48:52.389Z,101196.69
2023-03-17T18:51:20.898Z,101209.91
2023-03-17T18:53:49.875Z,101205.78
2023-03-17T18:56:18.301Z,101197.78
2023-03-17T18:58:47.437Z,101204.91
2023-03-17T19:01:15.972Z,101200.56
2023-03-17T19:03:44.749Z,101201.50
2023-03-17T19:06:16.766Z,101201.50
2023-03-17T19:08:45.892Z,101198.84
2023-03-17T19:11:18.531Z,101197.03
2023-03-17T19:13:47.660Z,101202.50
2023-03-17T19:16:16.936Z,101192.69
2023-03-17T19:18:45.898Z,101198.84
2023-03-17T19:21:14.455Z,101196.28
2023-03-17T19:23:43.316Z,101195.47
2023-03-17T19:26:11.880Z,101200.03
2023-03-17T19:28:40.689Z,101194.72
2023-03-17T19:31:09.655Z,101196.53
2023-03-17T19:33:38.618Z,101199.09
2023-03-17T19:36:12.458Z,101197.28
2023-03-17T19:38:41.725Z,101196.53
2023-03-17T19:41:10.146Z,101196.53
2023-03-17T19:43:41.582Z,101203.78
2023-03-17T19:46:11.558Z,101201.25
2023-03-17T19:48:40.774Z,101202.06
2023-03-17T19:51:09.610Z,101196.66
2023-03-17T19:53:38.567Z,101202.06
2023-03-17T19:56:07.464Z,101204.84
2023-03-17T19:58:36.447Z,101206.78
2023-03-17T20:01:05.635Z,101206.78
2023-03-17T20:03:35.490Z,101209.56
2023-03-17T20:06:06.675Z,101208.69
2023-03-17T20:08:36.350Z,101207.84
2023-03-17T20:11:06.217Z,101204.47
2023-03-17T20:13:35.787Z,101200.97
2023-03-17T20:16:06.082Z,101205.31
2023-03-17T20:18:35.421Z,101200.13
2023-03-17T20:21:06.008Z,101207.13
2023-03-17T20:23:36.993Z,101201.91
2023-03-17T20:26:05.786Z,101201.91
2023-03-17T20:28:34.690Z,101210.88
2023-03-17T20:31:04.785Z,101204.81
2023-03-17T20:33:33.839Z,101205.56
2023-03-17T20:36:03.486Z,101199.50
2023-03-17T20:38:39.140Z,101206.59
2023-03-17T20:41:10.506Z,101207.47
2023-03-17T20:43:40.440Z,101199.50
2023-03-17T20:46:09.486Z,101206.50
2023-03-17T20:48:38.428Z,101209.16
2023-03-17T20:51:07.214Z,101204.81
2023-03-17T20:53:36.433Z,101204.94
2023-03-17T20:56:05.709Z,101206.59
2023-03-17T20:58:34.866Z,101207.59
2023-03-17T21:01:03.618Z,101203.22
2023-03-17T21:03:32.692Z,101199.72
2023-03-17T21:06:01.490Z,101207.69
2023-03-17T21:08:29.888Z,101200.44
2023-03-17T21:10:58.821Z,101202.16
2023-03-17T21:13:27.690Z,101207.47
2023-03-17T21:15:56.996Z,101197.78
2023-03-17T21:18:25.838Z,101194.91
2023-03-17T21:20:54.540Z,101197.47
2023-03-17T21:23:23.817Z,101201.81
2023-03-17T21:25:56.366Z,101202.66
2023-03-17T21:28:24.881Z,101197.47
2023-03-17T21:30:53.978Z,101207.00
2023-03-17T21:33:22.553Z,101198.53
2023-03-17T21:35:51.600Z,101199.72
2023-03-17T21:38:20.028Z,101191.97
2023-03-17T21:40:48.871Z,101188.56
2023-03-17T21:43:17.548Z,101191.47
2023-03-17T21:45:46.201Z,101192.41
2023-03-17T21:48:14.646Z,101192.53
2023-03-17T21:50:44.294Z,101188.28
2023-03-17T21:53:16.014Z,101186.50
2023-03-17T21:55:45.472Z,101189.25
2023-03-17T21:58:13.771Z,101185.88
2023-03-17T22:00:45.591Z,101186.72
2023-03-17T22:03:14.668Z,101179.69
2023-03-17T22:05:44.182Z,101185.00
2023-03-17T22:08:12.575Z,101187.78
2023-03-17T22:10:41.455Z,101183.41
2023-03-17T22:13:09.833Z,101178.09
2023-03-17T22:15:38.648Z,101184.41
2023-03-17T22:18:06.908Z,101179.91
2023-03-17T22:20:36.536Z,101184.41
2023-03-17T22:23:04.843Z,101180.84
2023-03-17T22:25:33.695Z,101180.97
2023-03-17T22:28:03.018Z,101180.09
2023-03-17T22:30:31.870Z,101188.06
2023-03-17T22:33:00.391Z,101177.59
2023-03-17T22:35:29.133Z,101181.06
2023-03-17T22:37:57.839Z,101179.47
2023-03-17T22:40:26.797Z,101175.88
2023-03-17T22:42:58.656Z,101178.53
2023-03-17T22:45:27.615Z,101177.78
2023-03-17T22:47:56.272Z,101171.50
2023-03-17T22:50:25.454Z,101166.44
2023-03-17T22:52:53.897Z,101164.50
2023-03-17T22:55:22.899Z,101168.09
2023-03-17T22:57:51.710Z,101170.75
2023-03-17T23:00:20.711Z,101169.94
2023-03-17T23:02:49.023Z,101170.03
2023-03-17T23:05:17.825Z,101162.94
2023-03-17T23:07:53.069Z,101172.69
2023-03-17T23:10:23.411Z,101170.16
2023-03-17T23:12:52.004Z,101165.91
2023-03-17T23:15:21.246Z,101158.56
2023-03-17T23:17:49.693Z,101162.31
2023-03-17T23:20:19.165Z,101162.31
2023-03-17T23:22:47.941Z,101162.31
2023-03-17T23:25:16.808Z,101157.09
2023-03-17T23:27:45.650Z,101157.09
2023-03-17T23:30:15.765Z,101162.41
2023-03-17T23:32:44.443Z,101159.13
2023-03-17T23:35:13.690Z,101157.19
2023-03-17T23:37:42.241Z,101155.53
2023-03-17T23:40:14.059Z,101155.53
2023-03-17T23:42:42.587Z,101160.84
2023-03-17T23:45:12.177Z,101150.31
2023-03-17T23:47:40.947Z,101155.63
2023-03-17T23:50:10.839Z,101155.72
2023-03-17T23:52:39.281Z,101163.69
2023-03-17T23:55:08.894Z,101151.38
2023-03-17T23:57:38.014Z,101156.56
